createdAt,value
2022-09-06T00:04:35.769Z,52.77
2022-09-06T00:09:37.474Z,52.58
2022-09-06T00:14:41.250Z,52.31
2022-09-06T00:19:42.900Z,52.66
2022-09-06T00:24:44.791Z,52.36
2022-09-06T00:29:48.146Z,52.66
2022-09-06T00:34:49.841Z,52.44
2022-09-06T00:39:52.014Z,52.60
2022-09-06T00:44:55.301Z,52.15
2022-09-06T00:50:00.230Z,51.95
2022-09-06T00:55:02.774Z,51.98
2022-09-06T01:00:08.758Z,51.81
2022-09-06T01:05:12.141Z,51.85
2022-09-06T01:10:30.632Z,51.70
2022-09-06T01:15:54.821Z,51.65
2022-09-06T01:21:12.571Z,51.88
2022-09-06T01:26:42.352Z,51.36
2022-09-06T01:31:51.015Z,51.39
2022-09-06T01:37:09.532Z,51.06
2022-09-06T01:42:15.934Z,51.54
2022-09-06T01:47:29.757Z,50.44
2022-09-06T01:52:35.885Z,50.68
2022-09-06T01:57:50.542Z,50.85
2022-09-06T02:03:06.513Z,50.46
2022-09-06T02:08:12.887Z,50.64
2022-09-06T02:13:17.109Z,50.64
2022-09-06T02:18:24.949Z,51.01
2022-09-06T02:23:38.452Z,50.83
2022-09-06T02:28:40.801Z,51.07
2022-09-06T02:33:46.544Z,51.45
2022-09-06T02:38:48.812Z,51.81
2022-09-06T02:43:50.841Z,52.09
2022-09-06T02:48:54.259Z,52.16
2022-09-06T02:53:56.353Z,53.21
2022-09-06T02:58:58.359Z,52.83
2022-09-06T03:04:02.229Z,52.47
2022-09-06T03:09:04.323Z,52.63
2022-09-06T03:14:06.005Z,53.33
2022-09-06T03:19:09.320Z,52.92
2022-09-06T03:24:11.336Z,53.19
2022-09-06T03:29:13.383Z,53.28
2022-09-06T03:34:16.617Z,53.44
2022-09-06T03:39:18.669Z,53.35
2022-09-06T03:44:20.865Z,53.88
2022-09-06T03:49:24.178Z,54.13
2022-09-06T03:54:26.008Z,54.11
2022-09-06T03:59:27.745Z,53.73
2022-09-06T04:04:30.723Z,53.97
2022-09-06T04:09:32.558Z,54.43
2022-09-06T04:14:34.244Z,54.39
2022-09-06T04:19:37.927Z,54.77
2022-09-06T04:24:40.096Z,55.25
2022-09-06T04:29:42.069Z,55.38
2022-09-06T04:34:45.115Z,55.84
2022-09-06T04:39:46.977Z,56.17
2022-09-06T04:44:49.219Z,56.18
2022-09-06T04:49:52.568Z,56.03
2022-09-06T04:54:54.295Z,56.23
2022-09-06T04:59:55.974Z,56.14
2022-09-06T05:04:59.390Z,56.31
2022-09-06T05:10:01.400Z,56.67
2022-09-06T05:15:03.726Z,56.78
2022-09-06T05:20:08.604Z,56.78
2022-09-06T05:25:11.085Z,55.62
2022-09-06T05:30:14.133Z,54.81
2022-09-06T05:35:17.726Z,55.08
2022-09-06T05:40:19.685Z,54.93
2022-09-06T05:45:25.198Z,53.42
2022-09-06T05:50:28.711Z,52.76
2022-09-06T05:55:30.411Z,52.89
2022-09-06T06:00:32.418Z,51.61
2022-09-06T06:05:35.482Z,51.96
2022-09-06T06:10:38.736Z,52.73
2022-09-06T06:15:40.823Z,52.26
2022-09-06T06:20:44.408Z,52.25
2022-09-06T06:25:46.472Z,52.28
2022-09-06T06:30:48.168Z,52.13
2022-09-06T06:36:03.099Z,51.64
2022-09-06T06:41:07.321Z,51.84
2022-09-06T06:46:11.191Z,51.40
2022-09-06T06:51:16.606Z,50.88
2022-09-06T06:56:20.455Z,49.52
2022-09-06T07:01:23.893Z,49.42
2022-09-06T07:11:50.672Z,49.34
2022-09-06T07:16:52.370Z,49.76
2022-09-06T07:21:56.017Z,49.23
2022-09-06T07:32:20.056Z,49.71
2022-09-06T07:37:23.358Z,49.70
2022-09-06T07:42:25.364Z,48.27
2022-09-06T07:58:08.727Z,48.20
2022-09-06T08:03:10.624Z,48.83
2022-09-06T08:13:37.224Z,48.78
2022-09-06T08:18:39.351Z,48.36
2022-09-06T08:23:46.553Z,48.20
2022-09-06T08:28:48.653Z,48.02
2022-09-06T08:33:52.466Z,46.92
2022-09-06T08:38:56.188Z,45.73
2022-09-06T08:49:25.945Z,46.04
2022-09-06T08:54:37.283Z,47.34
2022-09-06T08:59:41.346Z,46.65
2022-09-06T09:04:46.898Z,48.00
2022-09-06T09:09:52.605Z,46.19
2022-09-06T09:15:02.179Z,46.67
2022-09-06T09:20:04.595Z,46.87
2022-09-06T09:25:16.200Z,46.88
2022-09-06T09:35:41.927Z,46.23
2022-09-06T09:40:52.718Z,47.33
2022-09-06T09:46:16.610Z,47.95
2022-09-06T09:51:26.954Z,47.44
2022-09-06T09:56:37.097Z,47.63
2022-09-06T10:01:39.012Z,47.70
2022-09-06T10:12:05.427Z,47.89
2022-09-06T10:17:07.470Z,48.60
2022-09-06T10:22:28.092Z,45.91
2022-09-06T10:27:31.975Z,41.34
2022-09-06T10:32:41.323Z,40.74
2022-09-06T10:38:03.039Z,38.02
2022-09-06T10:43:15.076Z,37.89
2022-09-06T10:48:21.373Z,39.25
2022-09-06T10:53:34.815Z,42.56
2022-09-06T11:04:12.721Z,43.62
2022-09-06T11:09:22.867Z,45.03
2022-09-06T11:14:28.543Z,45.68
2022-09-06T11:19:38.412Z,45.55
2022-09-06T11:24:58.671Z,45.87
2022-09-06T11:30:04.404Z,45.71
2022-09-06T11:35:08.346Z,45.61
2022-09-06T11:40:32.644Z,45.23
2022-09-06T11:45:44.771Z,46.05
2022-09-06T11:51:01.430Z,46.36
2022-09-06T11:56:25.408Z,45.88
2022-09-06T12:01:38.305Z,46.10
2022-09-06T12:06:42.349Z,45.99
2022-09-06T12:11:44.655Z,46.27
2022-09-06T12:17:26.541Z,45.51
2022-09-06T12:23:02.928Z,45.57
2022-09-06T12:28:09.605Z,45.40
2022-09-06T12:33:17.270Z,44.79
2022-09-06T12:38:25.126Z,43.69
2022-09-06T12:43:27.285Z,42.73
2022-09-06T12:48:31.954Z,42.24
2022-09-06T12:53:36.375Z,41.89
2022-09-06T12:58:38.548Z,40.85
2022-09-06T13:03:43.876Z,40.86
2022-09-06T13:08:49.656Z,40.61
2022-09-06T13:13:53.701Z,40.66
2022-09-06T13:19:10.399Z,40.22
2022-09-06T13:24:22.007Z,40.72
2022-09-06T13:29:26.187Z,40.98
2022-09-06T13:34:32.268Z,40.55
2022-09-06T13:39:38.016Z,41.20
2022-09-06T13:44:41.163Z,40.77
2022-09-06T13:49:43.297Z,41.17
2022-09-06T13:54:46.360Z,41.51
2022-09-06T13:59:48.098Z,41.32
2022-09-06T14:04:50.086Z,39.49
2022-09-06T14:09:53.738Z,39.60
2022-09-06T14:14:55.495Z,39.90
2022-09-06T14:19:57.770Z,40.88
2022-09-06T14:25:01.073Z,40.81
2022-09-06T14:30:03.820Z,41.74
2022-09-06T14:35:06.505Z,42.46
2022-09-06T14:40:10.790Z,42.88
2022-09-06T14:45:12.568Z,42.35
2022-09-06T14:50:14.321Z,42.53
2022-09-06T14:55:17.753Z,44.48
2022-09-06T15:00:19.820Z,45.07
2022-09-06T15:05:21.863Z,44.90
2022-09-06T15:10:25.198Z,44.58
2022-09-06T15:15:26.958Z,44.80
2022-09-06T15:20:30.015Z,44.32
2022-09-06T15:25:33.429Z,44.06
2022-09-06T15:30:38.063Z,43.28
2022-09-06T15:35:40.120Z,43.99
2022-09-06T15:40:43.623Z,44.15
2022-09-06T15:45:47.800Z,44.77
2022-09-06T15:50:51.539Z,45.72
2022-09-06T15:56:00.281Z,46.17
2022-09-06T16:01:05.931Z,46.38
2022-09-06T16:06:26.143Z,46.22
2022-09-06T16:11:31.395Z,45.93
2022-09-06T16:16:33.798Z,47.04
2022-09-06T16:21:38.006Z,46.29
2022-09-06T16:26:42.805Z,46.78
2022-09-06T16:31:45.602Z,47.03
2022-09-06T16:36:47.905Z,47.26
2022-09-06T16:41:51.042Z,47.45
2022-09-06T16:46:53.281Z,47.67
2022-09-06T16:51:55.479Z,47.58
2022-09-06T16:56:58.847Z,48.03
2022-09-06T17:02:01.210Z,49.05
2022-09-06T17:07:03.087Z,49.52
2022-09-06T17:12:07.015Z,49.65
2022-09-06T17:17:08.941Z,49.13
2022-09-06T17:22:12.655Z,49.50
2022-09-06T17:27:15.976Z,49.61
2022-09-06T17:32:17.777Z,50.12
2022-09-06T17:37:19.707Z,49.87
2022-09-06T17:42:23.143Z,49.95
2022-09-06T17:47:25.209Z,50.29
2022-09-06T17:52:27.338Z,50.45
2022-09-06T17:57:31.174Z,50.12
2022-09-06T18:02:32.872Z,50.16
2022-09-06T18:07:34.600Z,49.38
2022-09-06T18:12:38.326Z,50.34
2022-09-06T18:17:40.238Z,50.30
2022-09-06T18:22:42.216Z,50.58
2022-09-06T18:27:45.559Z,50.14
2022-09-06T18:32:47.771Z,49.71
2022-09-06T18:37:49.771Z,49.98
2022-09-06T18:42:52.967Z,49.07
2022-09-06T18:47:55.217Z,48.56
2022-09-06T18:52:56.926Z,48.78
2022-09-06T18:58:00.305Z,48.47
2022-09-06T19:03:02.088Z,47.49
2022-09-06T19:08:04.687Z,47.62
2022-09-06T19:13:08.405Z,47.89
2022-09-06T19:18:10.495Z,47.60
2022-09-06T19:23:12.468Z,47.93
2022-09-06T19:28:15.776Z,48.24
2022-09-06T19:33:18.772Z,48.33
2022-09-06T19:38:20.767Z,48.53
2022-09-06T19:43:24.023Z,48.48
2022-09-06T19:48:25.906Z,48.06
2022-09-06T19:53:28.284Z,48.26
2022-09-06T19:58:32.762Z,48.21
2022-09-06T20:03:36.183Z,48.83
2022-09-06T20:08:39.929Z,49.05
2022-09-06T20:13:44.606Z,48.25
2022-09-06T20:18:47.020Z,48.48
2022-09-06T20:23:49.826Z,48.94
2022-09-06T20:28:55.692Z,49.00
2022-09-06T20:34:01.656Z,49.22
2022-09-06T20:39:04.404Z,49.20
2022-09-06T20:44:07.838Z,48.83
2022-09-06T20:49:09.529Z,49.13
2022-09-06T20:54:11.525Z,49.59
2022-09-06T20:59:15.067Z,49.25
2022-09-06T21:04:18.043Z,50.04
2022-09-06T21:09:20.133Z,50.27
2022-09-06T21:14:23.624Z,50.26
2022-09-06T21:19:25.762Z,50.71
2022-09-06T21:24:27.811Z,50.38
2022-09-06T21:29:30.885Z,50.87
2022-09-06T21:34:32.922Z,50.89
2022-09-06T21:39:35.292Z,51.27
2022-09-06T21:44:38.404Z,51.27
2022-09-06T21:49:40.418Z,51.23
2022-09-06T21:54:42.474Z,51.52
2022-09-06T21:59:45.902Z,51.76
2022-09-06T22:04:47.947Z,51.78
2022-09-06T22:09:50.088Z,52.16
2022-09-06T22:14:53.507Z,52.90
2022-09-06T22:19:55.535Z,52.58
2022-09-06T22:24:57.538Z,52.70
2022-09-06T22:30:01.122Z,52.76
2022-09-06T22:35:03.807Z,52.85
2022-09-06T22:40:07.260Z,53.29
2022-09-06T22:45:11.269Z,53.27
2022-09-06T22:50:13.426Z,53.59
2022-09-06T22:55:15.343Z,53.22
2022-09-06T23:00:18.723Z,53.76
2022-09-06T23:05:21.256Z,54.04
2022-09-06T23:10:23.102Z,53.59
2022-09-06T23:15:26.584Z,54.17
2022-09-06T23:20:28.255Z,54.43
2022-09-06T23:25:30.561Z,54.69
2022-09-06T23:30:36.843Z,55.10
2022-09-06T23:35:38.601Z,55.34
2022-09-06T23:40:40.804Z,55.66
2022-09-06T23:45:44.371Z,56.16
2022-09-06T23:50:46.918Z,57.58
2022-09-06T23:55:48.976Z,58.44
